sensor_id;sensor_type;location;lat;lon;timestamp;P1;durP1;ratioP1;P2;durP2;ratioP2
6019;SDS011;3038;51.122;6.840;2023-02-28T00:00:05;5.10;;;4.70;;
6019;SDS011;3038;51.122;6.840;2023-02-28T00:02:38;6.27;;;4.50;;
6019;SDS011;3038;51.122;6.840;2023-02-28T00:05:06;5.90;;;5.17;;
6019;SDS011;3038;51.122;6.840;2023-02-28T00:07:35;6.80;;;4.80;;
6019;SDS011;3038;51.122;6.840;2023-02-28T00:10:01;6.73;;;4.30;;
6019;SDS011;3038;51.122;6.840;2023-02-28T00:12:27;5.17;;;4.67;;
6019;SDS011;3038;51.122;6.840;2023-02-28T00:14:53;5.20;;;4.20;;
6019;SDS011;3038;51.122;6.840;2023-02-28T00:17:18;5.30;;;4.80;;
6019;SDS011;3038;51.122;6.840;2023-02-28T00:19:49;6.23;;;4.80;;
6019;SDS011;3038;51.122;6.840;2023-02-28T00:22:16;7.43;;;6.00;;
6019;SDS011;3038;51.122;6.840;2023-02-28T00:24:43;5.50;;;5.00;;
6019;SDS011;3038;51.122;6.840;2023-02-28T00:27:09;7.33;;;5.70;;
6019;SDS011;3038;51.122;6.840;2023-02-28T00:29:34;5.30;;;4.83;;
6019;SDS011;3038;51.122;6.840;2023-02-28T00:32:00;6.87;;;5.10;;
6019;SDS011;3038;51.122;6.840;2023-02-28T00:34:25;5.50;;;4.83;;
6019;SDS011;3038;51.122;6.840;2023-02-28T00:36:50;6.30;;;5.30;;
6019;SDS011;3038;51.122;6.840;2023-02-28T00:39:16;6.67;;;5.23;;
6019;SDS011;3038;51.122;6.840;2023-02-28T00:41:41;5.80;;;5.13;;
6019;SDS011;3038;51.122;6.840;2023-02-28T00:44:07;7.00;;;5.90;;
6019;SDS011;3038;51.122;6.840;2023-02-28T00:46:32;5.03;;;4.53;;
6019;SDS011;3038;51.122;6.840;2023-02-28T00:48:58;5.60;;;5.10;;
6019;SDS011;3038;51.122;6.840;2023-02-28T00:51:23;5.53;;;4.37;;
6019;SDS011;3038;51.122;6.840;2023-02-28T00:53:48;5.50;;;5.00;;
6019;SDS011;3038;51.122;6.840;2023-02-28T00:56:14;7.53;;;5.27;;
6019;SDS011;3038;51.122;6.840;2023-02-28T00:58:39;5.87;;;4.27;;
6019;SDS011;3038;51.122;6.840;2023-02-28T01:01:05;7.97;;;4.60;;
6019;SDS011;3038;51.122;6.840;2023-02-28T01:03:30;6.30;;;4.23;;
6019;SDS011;3038;51.122;6.840;2023-02-28T01:05:55;7.80;;;4.73;;
6019;SDS011;3038;51.122;6.840;2023-02-28T01:08:21;4.80;;;4.30;;
6019;SDS011;3038;51.122;6.840;2023-02-28T01:10:46;5.13;;;4.57;;
6019;SDS011;3038;51.122;6.840;2023-02-28T01:13:12;4.43;;;4.03;;
6019;SDS011;3038;51.122;6.840;2023-02-28T01:15:39;4.90;;;4.50;;
6019;SDS011;3038;51.122;6.840;2023-02-28T01:18:08;4.60;;;4.20;;
6019;SDS011;3038;51.122;6.840;2023-02-28T01:20:35;5.07;;;4.57;;
6019;SDS011;3038;51.122;6.840;2023-02-28T01:23:02;5.23;;;4.73;;
6019;SDS011;3038;51.122;6.840;2023-02-28T01:25:27;4.80;;;4.17;;
6019;SDS011;3038;51.122;6.840;2023-02-28T01:27:52;4.87;;;3.83;;
6019;SDS011;3038;51.122;6.840;2023-02-28T01:30:18;5.20;;;4.50;;
6019;SDS011;3038;51.122;6.840;2023-02-28T01:32:43;5.17;;;4.33;;
6019;SDS011;3038;51.122;6.840;2023-02-28T01:35:08;5.27;;;4.77;;
6019;SDS011;3038;51.122;6.840;2023-02-28T01:37:34;4.70;;;4.20;;
6019;SDS011;3038;51.122;6.840;2023-02-28T01:39:59;4.40;;;4.00;;
6019;SDS011;3038;51.122;6.840;2023-02-28T01:42:24;7.27;;;4.50;;
6019;SDS011;3038;51.122;6.840;2023-02-28T01:45:15;5.23;;;4.30;;
6019;SDS011;3038;51.122;6.840;2023-02-28T01:48:03;4.37;;;3.97;;
6019;SDS011;3038;51.122;6.840;2023-02-28T01:50:32;6.60;;;4.23;;
6019;SDS011;3038;51.122;6.840;2023-02-28T01:53:04;3.93;;;3.63;;
6019;SDS011;3038;51.122;6.840;2023-02-28T01:55:32;8.17;;;5.30;;
6019;SDS011;3038;51.122;6.840;2023-02-28T01:58:00;5.03;;;4.43;;
6019;SDS011;3038;51.122;6.840;2023-02-28T02:00:27;4.97;;;4.47;;
6019;SDS011;3038;51.122;6.840;2023-02-28T02:02:58;5.03;;;3.60;;
6019;SDS011;3038;51.122;6.840;2023-02-28T02:05:30;7.93;;;4.03;;
6019;SDS011;3038;51.122;6.840;2023-02-28T02:08:03;6.50;;;4.63;;
6019;SDS011;3038;51.122;6.840;2023-02-28T02:10:41;5.73;;;4.10;;
6019;SDS011;3038;51.122;6.840;2023-02-28T02:24:04;4.47;;;3.87;;
6019;SDS011;3038;51.122;6.840;2023-02-28T02:30:00;5.33;;;4.00;;
6019;SDS011;3038;51.122;6.840;2023-02-28T02:36:44;7.50;;;6.10;;
6019;SDS011;3038;51.122;6.840;2023-02-28T02:41:54;6.20;;;5.40;;
6019;SDS011;3038;51.122;6.840;2023-02-28T02:44:30;7.47;;;5.97;;
6019;SDS011;3038;51.122;6.840;2023-02-28T02:47:03;6.93;;;5.53;;
6019;SDS011;3038;51.122;6.840;2023-02-28T02:49:36;7.10;;;6.37;;
6019;SDS011;3038;51.122;6.840;2023-02-28T02:52:04;7.10;;;6.40;;
6019;SDS011;3038;51.122;6.840;2023-02-28T02:54:36;8.50;;;6.27;;
6019;SDS011;3038;51.122;6.840;2023-02-28T02:57:14;7.03;;;6.03;;
6019;SDS011;3038;51.122;6.840;2023-02-28T02:59:46;8.17;;;7.03;;
6019;SDS011;3038;51.122;6.840;2023-02-28T03:02:14;7.97;;;6.47;;
6019;SDS011;3038;51.122;6.840;2023-02-28T03:04:53;9.87;;;6.70;;
6019;SDS011;3038;51.122;6.840;2023-02-28T03:07:25;8.70;;;6.77;;
6019;SDS011;3038;51.122;6.840;2023-02-28T03:09:55;19.30;;;7.17;;
6019;SDS011;3038;51.122;6.840;2023-02-28T03:12:23;10.77;;;7.03;;
6019;SDS011;3038;51.122;6.840;2023-02-28T03:23:19;8.40;;;7.23;;
6019;SDS011;3038;51.122;6.840;2023-02-28T03:26:06;8.60;;;6.70;;
6019;SDS011;3038;51.122;6.840;2023-02-28T03:34:17;8.27;;;7.47;;
6019;SDS011;3038;51.122;6.840;2023-02-28T03:36:50;7.73;;;6.47;;
6019;SDS011;3038;51.122;6.840;2023-02-28T03:39:21;9.67;;;7.33;;
6019;SDS011;3038;51.122;6.840;2023-02-28T03:41:52;7.77;;;7.07;;
6019;SDS011;3038;51.122;6.840;2023-02-28T03:44:26;10.20;;;7.70;;
6019;SDS011;3038;51.122;6.840;2023-02-28T03:47:06;12.03;;;7.90;;
6019;SDS011;3038;51.122;6.840;2023-02-28T03:49:57;9.63;;;7.77;;
6019;SDS011;3038;51.122;6.840;2023-02-28T03:52:30;12.50;;;8.70;;
6019;SDS011;3038;51.122;6.840;2023-02-28T03:55:00;8.17;;;7.30;;
6019;SDS011;3038;51.122;6.840;2023-02-28T04:00:17;9.47;;;7.83;;
6019;SDS011;3038;51.122;6.840;2023-02-28T04:02:46;12.93;;;8.50;;
6019;SDS011;3038;51.122;6.840;2023-02-28T04:05:17;9.40;;;8.40;;
6019;SDS011;3038;51.122;6.840;2023-02-28T04:07:43;10.03;;;7.20;;
6019;SDS011;3038;51.122;6.840;2023-02-28T04:10:09;9.07;;;7.50;;
6019;SDS011;3038;51.122;6.840;2023-02-28T04:12:36;8.67;;;7.10;;
6019;SDS011;3038;51.122;6.840;2023-02-28T04:15:01;11.10;;;7.77;;
6019;SDS011;3038;51.122;6.840;2023-02-28T04:17:27;14.00;;;9.27;;
6019;SDS011;3038;51.122;6.840;2023-02-28T04:19:52;9.90;;;7.87;;
6019;SDS011;3038;51.122;6.840;2023-02-28T04:22:22;11.70;;;8.63;;
6019;SDS011;3038;51.122;6.840;2023-02-28T04:24:47;8.97;;;7.57;;
6019;SDS011;3038;51.122;6.840;2023-02-28T04:27:13;11.17;;;7.80;;
6019;SDS011;3038;51.122;6.840;2023-02-28T04:29:40;7.87;;;7.10;;
6019;SDS011;3038;51.122;6.840;2023-02-28T04:32:09;7.87;;;7.17;;
6019;SDS011;3038;51.122;6.840;2023-02-28T04:34:35;9.17;;;6.97;;
6019;SDS011;3038;51.122;6.840;2023-02-28T04:37:03;10.67;;;7.47;;
6019;SDS011;3038;51.122;6.840;2023-02-28T04:39:29;10.00;;;8.00;;
6019;SDS011;3038;51.122;6.840;2023-02-28T04:41:55;7.57;;;6.87;;
6019;SDS011;3038;51.122;6.840;2023-02-28T04:44:21;8.73;;;6.67;;
6019;SDS011;3038;51.122;6.840;2023-02-28T04:46:48;8.17;;;7.33;;
6019;SDS011;3038;51.122;6.840;2023-02-28T04:49:14;7.50;;;6.87;;
6019;SDS011;3038;51.122;6.840;2023-02-28T04:51:40;10.67;;;7.80;;
6019;SDS011;3038;51.122;6.840;2023-02-28T04:54:05;8.00;;;6.83;;
6019;SDS011;3038;51.122;6.840;2023-02-28T04:56:31;8.70;;;7.03;;
6019;SDS011;3038;51.122;6.840;2023-02-28T04:58:57;11.63;;;7.50;;
6019;SDS011;3038;51.122;6.840;2023-02-28T05:01:23;10.23;;;8.33;;
6019;SDS011;3038;51.122;6.840;2023-02-28T05:03:51;13.83;;;7.00;;
6019;SDS011;3038;51.122;6.840;2023-02-28T05:06:18;8.27;;;6.33;;
6019;SDS011;3038;51.122;6.840;2023-02-28T05:08:45;8.70;;;7.57;;
6019;SDS011;3038;51.122;6.840;2023-02-28T05:11:16;7.77;;;6.87;;
6019;SDS011;3038;51.122;6.840;2023-02-28T05:13:46;7.10;;;6.40;;
6019;SDS011;3038;51.122;6.840;2023-02-28T05:16:13;7.23;;;6.17;;
6019;SDS011;3038;51.122;6.840;2023-02-28T05:18:38;8.37;;;6.80;;
6019;SDS011;3038;51.122;6.840;2023-02-28T05:21:04;8.33;;;6.07;;
6019;SDS011;3038;51.122;6.840;2023-02-28T05:23:30;10.70;;;6.33;;
6019;SDS011;3038;51.122;6.840;2023-02-28T05:25:55;6.87;;;6.17;;
6019;SDS011;3038;51.122;6.840;2023-02-28T05:28:21;6.10;;;5.60;;
6019;SDS011;3038;51.122;6.840;2023-02-28T05:30:47;9.30;;;6.23;;
6019;SDS011;3038;51.122;6.840;2023-02-28T05:33:12;7.10;;;6.13;;
6019;SDS011;3038;51.122;6.840;2023-02-28T05:35:39;6.10;;;5.50;;
6019;SDS011;3038;51.122;6.840;2023-02-28T05:38:05;7.10;;;5.40;;
6019;SDS011;3038;51.122;6.840;2023-02-28T05:40:30;5.47;;;4.97;;
6019;SDS011;3038;51.122;6.840;2023-02-28T05:42:56;6.23;;;5.47;;
6019;SDS011;3038;51.122;6.840;2023-02-28T05:45:21;6.10;;;5.03;;
6019;SDS011;3038;51.122;6.840;2023-02-28T05:47:46;4.67;;;4.27;;
6019;SDS011;3038;51.122;6.840;2023-02-28T05:50:12;6.60;;;5.23;;
6019;SDS011;3038;51.122;6.840;2023-02-28T05:52:37;7.93;;;6.10;;
6019;SDS011;3038;51.122;6.840;2023-02-28T05:55:03;8.40;;;5.50;;
6019;SDS011;3038;51.122;6.840;2023-02-28T05:57:28;5.20;;;4.47;;
6019;SDS011;3038;51.122;6.840;2023-02-28T05:59:54;7.50;;;5.10;;
6019;SDS011;3038;51.122;6.840;2023-02-28T06:02:19;5.57;;;4.97;;
6019;SDS011;3038;51.122;6.840;2023-02-28T06:04:44;5.27;;;4.77;;
6019;SDS011;3038;51.122;6.840;2023-02-28T06:07:10;6.67;;;4.20;;
6019;SDS011;3038;51.122;6.840;2023-02-28T06:09:36;5.10;;;4.60;;
6019;SDS011;3038;51.122;6.840;2023-02-28T06:12:03;4.73;;;4.37;;
6019;SDS011;3038;51.122;6.840;2023-02-28T06:14:35;5.00;;;4.50;;
6019;SDS011;3038;51.122;6.840;2023-02-28T06:17:01;4.80;;;4.30;;
6019;SDS011;3038;51.122;6.840;2023-02-28T06:19:28;7.03;;;5.07;;
6019;SDS011;3038;51.122;6.840;2023-02-28T06:21:55;4.60;;;4.20;;
6019;SDS011;3038;51.122;6.840;2023-02-28T06:24:22;6.20;;;5.10;;
6019;SDS011;3038;51.122;6.840;2023-02-28T06:26:49;6.83;;;4.90;;
6019;SDS011;3038;51.122;6.840;2023-02-28T06:29:15;4.87;;;4.13;;
6019;SDS011;3038;51.122;6.840;2023-02-28T06:31:42;5.00;;;4.60;;
6019;SDS011;3038;51.122;6.840;2023-02-28T06:34:08;4.83;;;4.43;;
6019;SDS011;3038;51.122;6.840;2023-02-28T06:36:36;4.60;;;4.10;;
6019;SDS011;3038;51.122;6.840;2023-02-28T06:39:06;5.77;;;5.17;;
6019;SDS011;3038;51.122;6.840;2023-02-28T06:41:33;7.13;;;5.57;;
6019;SDS011;3038;51.122;6.840;2023-02-28T06:44:02;5.77;;;5.07;;
6019;SDS011;3038;51.122;6.840;2023-02-28T06:46:29;4.60;;;4.20;;
6019;SDS011;3038;51.122;6.840;2023-02-28T06:48:54;5.20;;;4.60;;
6019;SDS011;3038;51.122;6.840;2023-02-28T06:51:20;5.20;;;4.70;;
6019;SDS011;3038;51.122;6.840;2023-02-28T06:53:47;5.27;;;4.23;;
6019;SDS011;3038;51.122;6.840;2023-02-28T06:56:13;5.20;;;4.70;;
6019;SDS011;3038;51.122;6.840;2023-02-28T06:58:40;5.63;;;5.13;;
6019;SDS011;3038;51.122;6.840;2023-02-28T07:01:06;5.53;;;4.33;;
6019;SDS011;3038;51.122;6.840;2023-02-28T07:03:32;5.17;;;4.63;;
6019;SDS011;3038;51.122;6.840;2023-02-28T07:05:59;5.23;;;4.50;;
6019;SDS011;3038;51.122;6.840;2023-02-28T07:08:25;4.27;;;3.87;;
6019;SDS011;3038;51.122;6.840;2023-02-28T07:10:55;4.17;;;3.87;;
6019;SDS011;3038;51.122;6.840;2023-02-28T07:13:21;6.70;;;4.70;;
6019;SDS011;3038;51.122;6.840;2023-02-28T07:18:23;5.43;;;4.93;;
6019;SDS011;3038;51.122;6.840;2023-02-28T07:20:48;5.97;;;5.37;;
6019;SDS011;3038;51.122;6.840;2023-02-28T07:23:14;9.70;;;5.43;;
6019;SDS011;3038;51.122;6.840;2023-02-28T07:25:39;4.77;;;4.30;;
6019;SDS011;3038;51.122;6.840;2023-02-28T07:28:05;5.23;;;4.80;;
6019;SDS011;3038;51.122;6.840;2023-02-28T07:30:30;5.33;;;4.73;;
6019;SDS011;3038;51.122;6.840;2023-02-28T07:32:55;5.43;;;5.00;;
6019;SDS011;3038;51.122;6.840;2023-02-28T07:35:21;4.83;;;4.43;;
6019;SDS011;3038;51.122;6.840;2023-02-28T07:37:47;5.37;;;4.87;;
6019;SDS011;3038;51.122;6.840;2023-02-28T07:40:12;4.93;;;4.50;;
6019;SDS011;3038;51.122;6.840;2023-02-28T07:42:39;6.60;;;6.00;;
6019;SDS011;3038;51.122;6.840;2023-02-28T07:45:06;5.37;;;4.87;;
6019;SDS011;3038;51.122;6.840;2023-02-28T07:47:33;5.80;;;5.30;;
6019;SDS011;3038;51.122;6.840;2023-02-28T07:49:59;5.50;;;4.83;;
6019;SDS011;3038;51.122;6.840;2023-02-28T07:52:24;9.40;;;7.60;;
6019;SDS011;3038;51.122;6.840;2023-02-28T07:54:50;6.53;;;5.03;;
6019;SDS011;3038;51.122;6.840;2023-02-28T07:57:16;6.13;;;5.07;;
6019;SDS011;3038;51.122;6.840;2023-02-28T07:59:42;5.10;;;4.60;;
6019;SDS011;3038;51.122;6.840;2023-02-28T08:02:10;5.50;;;5.00;;
6019;SDS011;3038;51.122;6.840;2023-02-28T08:04:38;4.70;;;4.30;;
6019;SDS011;3038;51.122;6.840;2023-02-28T08:07:03;5.10;;;4.70;;
6019;SDS011;3038;51.122;6.840;2023-02-28T08:09:29;5.07;;;4.60;;
6019;SDS011;3038;51.122;6.840;2023-02-28T08:11:55;4.20;;;3.87;;
6019;SDS011;3038;51.122;6.840;2023-02-28T08:14:20;6.13;;;4.50;;
6019;SDS011;3038;51.122;6.840;2023-02-28T08:16:46;7.10;;;3.67;;
6019;SDS011;3038;51.122;6.840;2023-02-28T08:19:11;3.90;;;3.60;;
6019;SDS011;3038;51.122;6.840;2023-02-28T08:21:36;5.43;;;3.53;;
6019;SDS011;3038;51.122;6.840;2023-02-28T08:24:02;3.50;;;3.20;;
6019;SDS011;3038;51.122;6.840;2023-02-28T08:26:27;3.93;;;3.57;;
6019;SDS011;3038;51.122;6.840;2023-02-28T08:28:52;3.60;;;3.30;;
6019;SDS011;3038;51.122;6.840;2023-02-28T08:31:18;3.73;;;3.17;;
6019;SDS011;3038;51.122;6.840;2023-02-28T08:33:44;3.30;;;3.00;;
6019;SDS011;3038;51.122;6.840;2023-02-28T08:36:10;3.90;;;3.20;;
6019;SDS011;3038;51.122;6.840;2023-02-28T08:38:36;3.97;;;3.20;;
6019;SDS011;3038;51.122;6.840;2023-02-28T08:41:04;3.87;;;3.57;;
6019;SDS011;3038;51.122;6.840;2023-02-28T08:43:32;4.00;;;3.70;;
6019;SDS011;3038;51.122;6.840;2023-02-28T08:45:58;3.60;;;2.70;;
6019;SDS011;3038;51.122;6.840;2023-02-28T08:48:28;3.60;;;3.20;;
6019;SDS011;3038;51.122;6.840;2023-02-28T08:50:58;3.70;;;3.40;;
6019;SDS011;3038;51.122;6.840;2023-02-28T08:53:24;3.70;;;3.40;;
6019;SDS011;3038;51.122;6.840;2023-02-28T08:56:00;3.47;;;3.17;;
6019;SDS011;3038;51.122;6.840;2023-02-28T08:58:27;4.87;;;2.77;;
6019;SDS011;3038;51.122;6.840;2023-02-28T09:00:53;5.47;;;2.93;;
6019;SDS011;3038;51.122;6.840;2023-02-28T09:03:19;3.17;;;2.70;;
6019;SDS011;3038;51.122;6.840;2023-02-28T09:05:55;2.90;;;2.70;;
6019;SDS011;3038;51.122;6.840;2023-02-28T09:08:23;3.20;;;2.90;;
6019;SDS011;3038;51.122;6.840;2023-02-28T09:10:49;3.40;;;2.63;;
6019;SDS011;3038;51.122;6.840;2023-02-28T09:13:14;2.90;;;2.30;;
6019;SDS011;3038;51.122;6.840;2023-02-28T09:15:40;3.07;;;2.60;;
6019;SDS011;3038;51.122;6.840;2023-02-28T09:18:05;2.60;;;2.40;;
6019;SDS011;3038;51.122;6.840;2023-02-28T09:20:30;3.87;;;2.73;;
6019;SDS011;3038;51.122;6.840;2023-02-28T09:22:56;2.50;;;2.30;;
6019;SDS011;3038;51.122;6.840;2023-02-28T09:25:21;4.10;;;3.03;;
6019;SDS011;3038;51.122;6.840;2023-02-28T09:27:47;2.70;;;2.50;;
6019;SDS011;3038;51.122;6.840;2023-02-28T09:30:12;4.00;;;2.50;;
6019;SDS011;3038;51.122;6.840;2023-02-28T09:32:38;2.90;;;2.70;;
6019;SDS011;3038;51.122;6.840;2023-02-28T09:35:03;3.80;;;2.97;;
6019;SDS011;3038;51.122;6.840;2023-02-28T09:37:31;2.83;;;2.40;;
6019;SDS011;3038;51.122;6.840;2023-02-28T09:39:56;3.20;;;2.90;;
6019;SDS011;3038;51.122;6.840;2023-02-28T09:42:25;2.77;;;2.57;;
6019;SDS011;3038;51.122;6.840;2023-02-28T09:45:02;2.87;;;2.53;;
6019;SDS011;3038;51.122;6.840;2023-02-28T09:47:38;3.43;;;3.00;;
6019;SDS011;3038;51.122;6.840;2023-02-28T09:50:16;2.93;;;2.63;;
6019;SDS011;3038;51.122;6.840;2023-02-28T09:53:04;2.97;;;2.77;;
6019;SDS011;3038;51.122;6.840;2023-02-28T09:55:45;2.43;;;2.10;;
6019;SDS011;3038;51.122;6.840;2023-02-28T09:58:16;3.00;;;2.70;;
6019;SDS011;3038;51.122;6.840;2023-02-28T10:01:00;2.93;;;2.73;;
6019;SDS011;3038;51.122;6.840;2023-02-28T10:06:13;3.00;;;2.70;;
6019;SDS011;3038;51.122;6.840;2023-02-28T10:11:11;3.00;;;2.80;;
6019;SDS011;3038;51.122;6.840;2023-02-28T10:16:20;3.20;;;3.00;;
6019;SDS011;3038;51.122;6.840;2023-02-28T10:18:52;5.20;;;2.87;;
6019;SDS011;3038;51.122;6.840;2023-02-28T10:21:35;3.47;;;3.17;;
6019;SDS011;3038;51.122;6.840;2023-02-28T10:24:19;2.60;;;2.40;;
6019;SDS011;3038;51.122;6.840;2023-02-28T10:26:48;3.13;;;2.80;;
6019;SDS011;3038;51.122;6.840;2023-02-28T10:29:16;3.30;;;3.00;;
6019;SDS011;3038;51.122;6.840;2023-02-28T10:31:41;3.03;;;2.60;;
6019;SDS011;3038;51.122;6.840;2023-02-28T10:34:07;2.97;;;2.77;;
6019;SDS011;3038;51.122;6.840;2023-02-28T10:36:37;3.60;;;3.10;;
6019;SDS011;3038;51.122;6.840;2023-02-28T10:39:33;3.17;;;2.87;;
6019;SDS011;3038;51.122;6.840;2023-02-28T10:42:18;4.83;;;3.80;;
6019;SDS011;3038;51.122;6.840;2023-02-28T10:44:46;3.87;;;3.07;;
6019;SDS011;3038;51.122;6.840;2023-02-28T10:47:15;3.40;;;3.10;;
6019;SDS011;3038;51.122;6.840;2023-02-28T10:49:49;3.23;;;2.93;;
6019;SDS011;3038;51.122;6.840;2023-02-28T10:52:32;3.47;;;3.17;;
6019;SDS011;3038;51.122;6.840;2023-02-28T10:58:01;3.53;;;3.20;;
6019;SDS011;3038;51.122;6.840;2023-02-28T11:00:31;3.40;;;3.10;;
6019;SDS011;3038;51.122;6.840;2023-02-28T11:02:59;3.27;;;3.07;;
6019;SDS011;3038;51.122;6.840;2023-02-28T11:05:26;3.40;;;3.10;;
6019;SDS011;3038;51.122;6.840;2023-02-28T11:07:59;3.50;;;3.20;;
6019;SDS011;3038;51.122;6.840;2023-02-28T11:10:53;3.20;;;3.00;;
6019;SDS011;3038;51.122;6.840;2023-02-28T11:13:21;3.87;;;3.40;;
6019;SDS011;3038;51.122;6.840;2023-02-28T11:15:55;3.63;;;3.33;;
6019;SDS011;3038;51.122;6.840;2023-02-28T11:21:05;3.23;;;2.90;;
6019;SDS011;3038;51.122;6.840;2023-02-28T11:23:32;3.00;;;2.80;;
6019;SDS011;3038;51.122;6.840;2023-02-28T11:26:01;4.57;;;3.43;;
6019;SDS011;3038;51.122;6.840;2023-02-28T11:28:36;3.77;;;3.47;;
6019;SDS011;3038;51.122;6.840;2023-02-28T11:33:43;4.03;;;3.63;;
6019;SDS011;3038;51.122;6.840;2023-02-28T11:38:49;3.70;;;3.40;;
6019;SDS011;3038;51.122;6.840;2023-02-28T11:44:10;3.17;;;2.97;;
6019;SDS011;3038;51.122;6.840;2023-02-28T11:46:50;3.13;;;2.93;;
6019;SDS011;3038;51.122;6.840;2023-02-28T11:57:14;4.57;;;3.60;;
6019;SDS011;3038;51.122;6.840;2023-02-28T12:00:06;3.83;;;3.53;;
6019;SDS011;3038;51.122;6.840;2023-02-28T12:03:02;4.47;;;4.17;;
6019;SDS011;3038;51.122;6.840;2023-02-28T12:06:10;3.67;;;3.37;;
6019;SDS011;3038;51.122;6.840;2023-02-28T12:14:14;4.00;;;3.70;;
6019;SDS011;3038;51.122;6.840;2023-02-28T12:25:18;4.70;;;3.90;;
6019;SDS011;3038;51.122;6.840;2023-02-28T12:28:10;4.10;;;3.80;;
6019;SDS011;3038;51.122;6.840;2023-02-28T12:30:38;4.50;;;4.20;;
6019;SDS011;3038;51.122;6.840;2023-02-28T12:33:12;4.53;;;4.23;;
6019;SDS011;3038;51.122;6.840;2023-02-28T12:41:19;4.40;;;4.10;;
6019;SDS011;3038;51.122;6.840;2023-02-28T12:43:52;5.10;;;4.17;;
6019;SDS011;3038;51.122;6.840;2023-02-28T12:48:58;4.33;;;3.93;;
6019;SDS011;3038;51.122;6.840;2023-02-28T12:51:30;4.10;;;3.80;;
6019;SDS011;3038;51.122;6.840;2023-02-28T12:59:43;4.00;;;3.70;;
6019;SDS011;3038;51.122;6.840;2023-02-28T13:05:15;4.10;;;3.70;;
6019;SDS011;3038;51.122;6.840;2023-02-28T13:08:05;5.27;;;4.87;;
6019;SDS011;3038;51.122;6.840;2023-02-28T13:10:46;5.50;;;4.40;;
6019;SDS011;3038;51.122;6.840;2023-02-28T13:13:20;4.70;;;4.30;;
6019;SDS011;3038;51.122;6.840;2023-02-28T13:16:04;4.10;;;3.80;;
6019;SDS011;3038;51.122;6.840;2023-02-28T13:18:33;4.57;;;3.93;;
6019;SDS011;3038;51.122;6.840;2023-02-28T13:21:03;4.07;;;3.77;;
6019;SDS011;3038;51.122;6.840;2023-02-28T13:23:38;4.23;;;3.83;;
6019;SDS011;3038;51.122;6.840;2023-02-28T13:26:06;3.63;;;3.33;;
6019;SDS011;3038;51.122;6.840;2023-02-28T13:31:23;4.00;;;3.60;;
6019;SDS011;3038;51.122;6.840;2023-02-28T13:36:30;4.00;;;3.70;;
6019;SDS011;3038;51.122;6.840;2023-02-28T13:47:20;4.07;;;3.63;;
6019;SDS011;3038;51.122;6.840;2023-02-28T14:05:35;4.17;;;3.70;;
6019;SDS011;3038;51.122;6.840;2023-02-28T14:10:27;4.00;;;3.10;;
6019;SDS011;3038;51.122;6.840;2023-02-28T14:12:54;3.17;;;2.87;;
6019;SDS011;3038;51.122;6.840;2023-02-28T14:18:25;4.00;;;3.70;;
6019;SDS011;3038;51.122;6.840;2023-02-28T14:21:43;5.07;;;3.53;;
6019;SDS011;3038;51.122;6.840;2023-02-28T14:31:13;4.33;;;3.93;;
6019;SDS011;3038;51.122;6.840;2023-02-28T14:36:42;3.70;;;3.40;;
6019;SDS011;3038;51.122;6.840;2023-02-28T14:39:15;4.47;;;4.07;;
6019;SDS011;3038;51.122;6.840;2023-02-28T14:41:44;4.03;;;3.57;;
6019;SDS011;3038;51.122;6.840;2023-02-28T14:44:18;4.17;;;3.87;;
6019;SDS011;3038;51.122;6.840;2023-02-28T14:46:49;3.37;;;3.07;;
6019;SDS011;3038;51.122;6.840;2023-02-28T14:51:46;3.90;;;3.60;;
6019;SDS011;3038;51.122;6.840;2023-02-28T14:54:15;5.30;;;4.00;;
6019;SDS011;3038;51.122;6.840;2023-02-28T14:56:42;4.40;;;3.70;;
6019;SDS011;3038;51.122;6.840;2023-02-28T14:59:23;3.87;;;3.23;;
6019;SDS011;3038;51.122;6.840;2023-02-28T15:01:51;4.33;;;4.03;;
6019;SDS011;3038;51.122;6.840;2023-02-28T15:04:25;4.00;;;3.70;;
6019;SDS011;3038;51.122;6.840;2023-02-28T15:07:08;4.63;;;4.23;;
6019;SDS011;3038;51.122;6.840;2023-02-28T15:09:42;4.20;;;3.77;;
6019;SDS011;3038;51.122;6.840;2023-02-28T15:12:09;6.57;;;4.47;;
6019;SDS011;3038;51.122;6.840;2023-02-28T15:14:39;4.37;;;3.97;;
6019;SDS011;3038;51.122;6.840;2023-02-28T15:17:09;5.27;;;4.20;;
6019;SDS011;3038;51.122;6.840;2023-02-28T15:19:42;4.50;;;4.13;;
6019;SDS011;3038;51.122;6.840;2023-02-28T15:22:14;4.60;;;3.90;;
6019;SDS011;3038;51.122;6.840;2023-02-28T15:24:45;4.53;;;3.70;;
6019;SDS011;3038;51.122;6.840;2023-02-28T15:27:36;7.13;;;3.80;;
6019;SDS011;3038;51.122;6.840;2023-02-28T15:30:07;6.57;;;5.10;;
6019;SDS011;3038;51.122;6.840;2023-02-28T15:32:40;4.70;;;4.30;;
6019;SDS011;3038;51.122;6.840;2023-02-28T15:37:56;5.10;;;4.60;;
6019;SDS011;3038;51.122;6.840;2023-02-28T15:43:13;3.70;;;3.43;;
6019;SDS011;3038;51.122;6.840;2023-02-28T15:50:57;4.80;;;4.50;;
6019;SDS011;3038;51.122;6.840;2023-02-28T15:53:43;5.53;;;4.40;;
6019;SDS011;3038;51.122;6.840;2023-02-28T15:58:59;5.60;;;5.00;;
6019;SDS011;3038;51.122;6.840;2023-02-28T16:01:28;5.93;;;5.40;;
6019;SDS011;3038;51.122;6.840;2023-02-28T16:04:05;7.33;;;4.23;;
6019;SDS011;3038;51.122;6.840;2023-02-28T16:06:39;5.73;;;5.20;;
6019;SDS011;3038;51.122;6.840;2023-02-28T16:09:13;6.93;;;5.17;;
6019;SDS011;3038;51.122;6.840;2023-02-28T16:11:41;4.53;;;4.13;;
6019;SDS011;3038;51.122;6.840;2023-02-28T16:14:16;5.30;;;4.80;;
6019;SDS011;3038;51.122;6.840;2023-02-28T16:16:48;4.73;;;3.97;;
6019;SDS011;3038;51.122;6.840;2023-02-28T16:19:16;5.73;;;4.90;;
6019;SDS011;3038;51.122;6.840;2023-02-28T16:21:42;5.30;;;4.80;;
6019;SDS011;3038;51.122;6.840;2023-02-28T16:24:08;4.03;;;3.73;;
6019;SDS011;3038;51.122;6.840;2023-02-28T16:26:33;6.30;;;4.73;;
6019;SDS011;3038;51.122;6.840;2023-02-28T16:29:00;4.50;;;4.10;;
6019;SDS011;3038;51.122;6.840;2023-02-28T16:31:26;5.77;;;5.17;;
6019;SDS011;3038;51.122;6.840;2023-02-28T16:33:53;5.70;;;5.20;;
6019;SDS011;3038;51.122;6.840;2023-02-28T16:36:23;4.90;;;4.50;;
6019;SDS011;3038;51.122;6.840;2023-02-28T16:38:53;8.30;;;4.03;;
6019;SDS011;3038;51.122;6.840;2023-02-28T16:41:20;6.20;;;5.37;;
6019;SDS011;3038;51.122;6.840;2023-02-28T16:43:47;6.23;;;5.70;;
6019;SDS011;3038;51.122;6.840;2023-02-28T16:46:15;5.80;;;4.90;;
6019;SDS011;3038;51.122;6.840;2023-02-28T16:48:41;5.83;;;5.20;;
6019;SDS011;3038;51.122;6.840;2023-02-28T16:51:11;7.20;;;5.40;;
6019;SDS011;3038;51.122;6.840;2023-02-28T16:53:37;6.30;;;5.70;;
6019;SDS011;3038;51.122;6.840;2023-02-28T16:56:03;6.40;;;5.17;;
6019;SDS011;3038;51.122;6.840;2023-02-28T16:58:29;5.73;;;5.27;;
6019;SDS011;3038;51.122;6.840;2023-02-28T17:00:54;6.33;;;5.80;;
6019;SDS011;3038;51.122;6.840;2023-02-28T17:03:25;6.37;;;5.77;;
6019;SDS011;3038;51.122;6.840;2023-02-28T17:05:51;6.90;;;5.23;;
6019;SDS011;3038;51.122;6.840;2023-02-28T17:08:17;6.77;;;6.17;;
6019;SDS011;3038;51.122;6.840;2023-02-28T17:10:42;8.83;;;7.30;;
6019;SDS011;3038;51.122;6.840;2023-02-28T17:13:08;7.30;;;6.00;;
6019;SDS011;3038;51.122;6.840;2023-02-28T17:15:34;6.40;;;5.43;;
6019;SDS011;3038;51.122;6.840;2023-02-28T17:18:00;6.77;;;6.17;;
6019;SDS011;3038;51.122;6.840;2023-02-28T17:20:26;7.40;;;5.90;;
6019;SDS011;3038;51.122;6.840;2023-02-28T17:22:52;6.93;;;6.23;;
6019;SDS011;3038;51.122;6.840;2023-02-28T17:25:18;8.23;;;5.80;;
6019;SDS011;3038;51.122;6.840;2023-02-28T17:27:44;6.03;;;5.53;;
6019;SDS011;3038;51.122;6.840;2023-02-28T17:30:14;6.80;;;6.20;;
6019;SDS011;3038;51.122;6.840;2023-02-28T17:32:42;9.17;;;6.50;;
6019;SDS011;3038;51.122;6.840;2023-02-28T17:35:07;7.10;;;6.00;;
6019;SDS011;3038;51.122;6.840;2023-02-28T17:37:33;7.97;;;7.17;;
6019;SDS011;3038;51.122;6.840;2023-02-28T17:39:59;9.03;;;7.23;;
6019;SDS011;3038;51.122;6.840;2023-02-28T17:42:25;8.43;;;6.50;;
6019;SDS011;3038;51.122;6.840;2023-02-28T17:44:50;6.97;;;6.30;;
6019;SDS011;3038;51.122;6.840;2023-02-28T17:47:15;9.20;;;6.97;;
6019;SDS011;3038;51.122;6.840;2023-02-28T17:49:41;9.37;;;7.67;;
6019;SDS011;3038;51.122;6.840;2023-02-28T17:52:06;7.50;;;6.80;;
6019;SDS011;3038;51.122;6.840;2023-02-28T17:54:32;9.27;;;7.00;;
6019;SDS011;3038;51.122;6.840;2023-02-28T17:56:58;7.40;;;6.70;;
6019;SDS011;3038;51.122;6.840;2023-02-28T17:59:23;9.30;;;7.20;;
6019;SDS011;3038;51.122;6.840;2023-02-28T18:01:48;8.93;;;7.70;;
6019;SDS011;3038;51.122;6.840;2023-02-28T18:04:14;7.80;;;7.00;;
6019;SDS011;3038;51.122;6.840;2023-02-28T18:06:40;8.53;;;7.63;;
6019;SDS011;3038;51.122;6.840;2023-02-28T18:09:15;8.27;;;7.47;;